createdAt,value
2022-09-07T00:00:05.594Z,2.17
2022-09-07T00:02:34.138Z,3.30
2022-09-07T00:05:01.352Z,4.70
2022-09-07T00:07:28.504Z,4.60
2022-09-07T00:09:55.668Z,2.93
2022-09-07T00:12:22.794Z,3.63
2022-09-07T00:14:49.913Z,3.53
2022-09-07T00:17:17.132Z,4.37
2022-09-07T00:19:45.667Z,3.03
2022-09-07T00:22:12.848Z,3.00
2022-09-07T00:24:40.025Z,3.57
2022-09-07T00:27:07.187Z,3.90
2022-09-07T00:29:34.324Z,4.17
2022-09-07T00:32:01.466Z,6.03
2022-09-07T00:34:28.634Z,2.33
2022-09-07T00:36:57.109Z,3.37
2022-09-07T00:39:24.240Z,4.20
2022-09-07T00:41:51.356Z,6.97
2022-09-07T00:44:45.651Z,3.90
2022-09-07T00:47:16.393Z,6.60
2022-09-07T00:49:44.538Z,6.43
2022-09-07T00:52:13.972Z,4.73
2022-09-07T00:54:42.631Z,8.47
2022-09-07T00:57:10.196Z,8.40
2022-09-07T00:59:39.527Z,11.13
2022-09-07T01:02:06.824Z,6.53
2022-09-07T01:04:34.799Z,4.00
2022-09-07T01:07:02.146Z,6.43
2022-09-07T01:09:30.732Z,5.73
2022-09-07T01:11:59.101Z,5.53
2022-09-07T01:14:28.537Z,5.40
2022-09-07T01:17:02.109Z,5.40
2022-09-07T01:19:47.134Z,3.00
2022-09-07T01:22:25.258Z,4.00
2022-09-07T01:25:01.675Z,6.13
2022-09-07T01:27:47.355Z,8.80
2022-09-07T01:30:17.181Z,7.90
2022-09-07T01:32:59.184Z,4.67
2022-09-07T01:35:32.355Z,7.10
2022-09-07T01:38:03.578Z,11.10
2022-09-07T01:40:38.370Z,5.37
2022-09-07T01:43:10.219Z,8.83
2022-09-07T01:45:41.494Z,7.23
2022-09-07T01:48:11.580Z,5.00
2022-09-07T01:50:39.775Z,4.33
2022-09-07T01:53:08.821Z,4.00
2022-09-07T01:55:37.496Z,5.43
2022-09-07T01:58:08.779Z,4.13
2022-09-07T02:00:36.543Z,5.93
2022-09-07T02:03:07.322Z,7.03
2022-09-07T02:05:35.348Z,3.27
2022-09-07T02:08:06.401Z,5.50
2022-09-07T02:10:37.620Z,3.73
2022-09-07T02:13:05.942Z,5.67
2022-09-07T02:15:37.486Z,4.60
2022-09-07T02:18:08.045Z,5.63
2022-09-07T02:20:36.997Z,6.00
2022-09-07T02:23:06.610Z,4.97
2022-09-07T02:25:36.815Z,7.10
2022-09-07T02:28:06.145Z,6.27
2022-09-07T02:30:33.355Z,5.10
2022-09-07T02:33:00.702Z,9.50
2022-09-07T02:35:29.229Z,5.83
2022-09-07T02:37:56.682Z,7.60
2022-09-07T02:40:23.865Z,10.00
2022-09-07T02:42:51.035Z,6.80
2022-09-07T02:45:18.439Z,7.60
2022-09-07T02:47:51.635Z,7.97
2022-09-07T02:50:26.503Z,7.30
2022-09-07T02:53:00.946Z,8.80
2022-09-07T02:55:33.474Z,7.93
2022-09-07T02:58:07.408Z,8.37
2022-09-07T03:00:36.235Z,13.30
2022-09-07T03:03:08.922Z,12.60
2022-09-07T03:05:42.342Z,12.93
2022-09-07T03:08:12.668Z,13.20
2022-09-07T03:10:40.088Z,14.77
2022-09-07T03:13:07.357Z,15.20
2022-09-07T03:15:34.576Z,16.83
2022-09-07T03:18:01.739Z,18.93
2022-09-07T03:20:28.900Z,19.03
2022-09-07T03:22:56.054Z,15.70
2022-09-07T03:25:24.549Z,16.73
2022-09-07T03:27:51.661Z,16.17
2022-09-07T03:30:18.907Z,13.07
2022-09-07T03:32:46.068Z,19.13
2022-09-07T03:35:14.390Z,15.63
2022-09-07T03:37:41.793Z,12.43
2022-09-07T03:40:10.357Z,17.10
2022-09-07T03:42:38.983Z,13.30
2022-09-07T03:45:06.853Z,14.23
2022-09-07T03:47:34.375Z,14.10
2022-09-07T03:50:01.538Z,13.00
2022-09-07T03:52:28.717Z,15.63
2022-09-07T03:54:55.842Z,10.10
2022-09-07T03:57:22.987Z,12.30
2022-09-07T03:59:51.466Z,13.60
2022-09-07T04:02:18.936Z,13.17
2022-09-07T04:04:46.186Z,14.30
2022-09-07T04:07:13.566Z,12.93
2022-09-07T04:09:40.939Z,15.03
2022-09-07T04:12:08.383Z,15.23
2022-09-07T04:14:35.507Z,16.60
2022-09-07T04:17:04.073Z,22.60
2022-09-07T04:19:31.249Z,21.93
2022-09-07T04:21:58.400Z,25.77
2022-09-07T04:24:25.529Z,29.70
2022-09-07T04:26:52.706Z,32.40
2022-09-07T04:29:20.028Z,29.93
2022-09-07T04:31:47.177Z,32.10
2022-09-07T04:34:15.689Z,32.67
2022-09-07T04:36:42.797Z,40.17
2022-09-07T04:39:10.733Z,35.83
2022-09-07T04:41:37.990Z,30.93
2022-09-07T04:44:05.352Z,25.60
2022-09-07T04:46:33.603Z,37.30
2022-09-07T04:49:01.839Z,41.80
2022-09-07T04:51:31.020Z,36.30
2022-09-07T04:53:58.980Z,43.57
2022-09-07T04:56:26.641Z,45.87
2022-09-07T04:58:53.778Z,40.83
2022-09-07T05:01:21.878Z,48.00
2022-09-07T05:03:49.263Z,50.90
2022-09-07T05:06:17.394Z,41.40
2022-09-07T05:08:47.171Z,48.40
2022-09-07T05:11:15.426Z,44.83
2022-09-07T05:13:42.824Z,45.60
2022-09-07T05:16:11.345Z,50.40
2022-09-07T05:18:38.536Z,47.63
2022-09-07T05:21:10.175Z,48.97
2022-09-07T05:23:37.346Z,41.17
2022-09-07T05:26:06.167Z,36.60
2022-09-07T05:28:33.843Z,32.37
2022-09-07T05:31:20.453Z,40.87
2022-09-07T05:36:35.418Z,27.33
2022-09-07T05:39:02.571Z,30.80
2022-09-07T05:41:31.034Z,30.33
2022-09-07T05:46:45.327Z,26.60
2022-09-07T05:49:12.491Z,24.10
2022-09-07T05:51:39.657Z,26.03
2022-09-07T05:54:06.830Z,19.90
2022-09-07T05:56:36.238Z,19.60
2022-09-07T05:59:03.967Z,22.60
2022-09-07T06:01:31.522Z,18.87
2022-09-07T06:03:58.717Z,23.90
2022-09-07T06:06:25.879Z,22.17
2022-09-07T06:08:53.904Z,18.27
2022-09-07T06:11:21.880Z,20.93
2022-09-07T06:13:50.696Z,18.80
2022-09-07T06:16:18.422Z,23.17
2022-09-07T06:18:46.555Z,19.50
2022-09-07T06:21:14.587Z,22.63
2022-09-07T06:23:42.333Z,21.30
2022-09-07T06:26:10.139Z,17.70
2022-09-07T06:28:37.884Z,23.43
2022-09-07T06:31:07.099Z,20.67
2022-09-07T06:33:34.746Z,20.23
2022-09-07T06:36:03.178Z,16.00
2022-09-07T06:38:31.960Z,13.80
2022-09-07T06:43:49.947Z,12.27
2022-09-07T06:49:05.784Z,14.80
2022-09-07T06:51:33.028Z,12.90
2022-09-07T06:56:47.478Z,14.53
2022-09-07T06:59:14.667Z,16.10
2022-09-07T07:01:43.192Z,12.67
2022-09-07T07:04:10.356Z,16.83
2022-09-07T07:06:38.217Z,18.70
2022-09-07T07:09:06.065Z,18.97
2022-09-07T07:11:33.261Z,17.87
2022-09-07T07:14:00.452Z,19.63
2022-09-07T07:16:27.787Z,17.00
2022-09-07T07:18:56.737Z,18.70
2022-09-07T07:21:24.124Z,17.83
2022-09-07T07:23:51.684Z,22.77
2022-09-07T07:26:19.783Z,17.80
2022-09-07T07:29:04.298Z,21.90
2022-09-07T07:31:31.940Z,15.97
2022-09-07T07:34:00.639Z,16.53
2022-09-07T07:36:28.105Z,9.87
2022-09-07T07:38:59.369Z,10.57
2022-09-07T07:44:16.049Z,11.40
2022-09-07T07:46:43.190Z,6.93
2022-09-07T07:49:11.697Z,5.43
2022-09-07T07:54:25.912Z,4.50
2022-09-07T07:56:52.991Z,6.43
2022-09-07T07:59:20.092Z,12.53
2022-09-07T08:01:47.248Z,5.07
2022-09-07T08:04:16.028Z,3.53
2022-09-07T08:06:43.406Z,6.10
2022-09-07T08:09:10.561Z,3.10
2022-09-07T08:11:37.651Z,3.57
2022-09-07T08:14:04.771Z,6.43
2022-09-07T08:16:31.894Z,3.70
2022-09-07T08:18:59.124Z,2.50
2022-09-07T08:21:27.616Z,4.70
2022-09-07T08:23:54.735Z,9.70
2022-09-07T08:26:21.878Z,3.30
2022-09-07T08:28:48.975Z,4.80
2022-09-07T08:31:16.898Z,4.33
2022-09-07T08:33:44.125Z,6.43
2022-09-07T08:36:12.226Z,3.50
2022-09-07T08:38:40.895Z,3.63
2022-09-07T08:41:25.102Z,2.83
2022-09-07T08:43:54.282Z,2.92
2022-09-07T08:46:27.323Z,2.30
2022-09-07T08:48:54.844Z,1.88
2022-09-07T08:51:24.426Z,2.72
2022-09-07T08:53:53.099Z,4.18
2022-09-07T08:56:23.436Z,2.55
2022-09-07T08:58:51.460Z,1.38
2022-09-07T09:01:35.489Z,1.15
2022-09-07T09:04:19.996Z,1.60
2022-09-07T09:06:54.418Z,2.90
2022-09-07T09:09:27.244Z,1.70
2022-09-07T09:11:59.937Z,2.80
2022-09-07T09:17:04.363Z,3.42
2022-09-07T09:19:39.074Z,1.70
2022-09-07T09:22:09.658Z,2.53
2022-09-07T09:24:40.850Z,2.28
2022-09-07T09:27:10.200Z,1.98
2022-09-07T09:29:37.321Z,5.10
2022-09-07T09:32:19.285Z,1.95
2022-09-07T09:35:00.394Z,2.75
2022-09-07T09:37:33.422Z,2.83
2022-09-07T09:40:02.988Z,1.77
2022-09-07T09:42:33.376Z,3.03
2022-09-07T09:45:03.692Z,4.15
2022-09-07T09:47:31.966Z,3.72
2022-09-07T09:50:00.667Z,2.65
2022-09-07T09:52:31.089Z,2.95
2022-09-07T10:01:21.054Z,2.17
2022-09-07T10:06:15.842Z,2.70
2022-09-07T10:08:50.827Z,2.78
2022-09-07T10:11:17.957Z,2.00
2022-09-07T10:13:54.297Z,5.50
2022-09-07T10:16:34.796Z,3.22
2022-09-07T10:19:02.078Z,1.92
2022-09-07T10:21:29.695Z,3.33
2022-09-07T10:23:59.266Z,9.35
2022-09-07T10:26:31.319Z,3.50
2022-09-07T10:29:13.505Z,2.90
2022-09-07T10:31:51.627Z,2.70
2022-09-07T10:34:26.506Z,2.45
2022-09-07T10:36:57.409Z,2.88
2022-09-07T10:39:26.500Z,3.65
2022-09-07T10:41:59.893Z,4.63
2022-09-07T10:44:37.041Z,3.22
2022-09-07T10:47:07.508Z,2.65
2022-09-07T10:49:37.283Z,4.03
2022-09-07T10:52:09.712Z,3.08
2022-09-07T10:54:42.708Z,3.17
2022-09-07T10:57:21.978Z,3.03
2022-09-07T11:00:12.034Z,2.55
2022-09-07T11:05:45.103Z,3.58
2022-09-07T11:08:18.669Z,5.07
2022-09-07T11:10:48.631Z,4.78
2022-09-07T11:13:18.453Z,3.17
2022-09-07T11:15:49.460Z,4.00
2022-09-07T11:18:18.929Z,4.60
2022-09-07T11:20:47.675Z,4.22
2022-09-07T11:23:17.631Z,5.15
2022-09-07T11:25:47.982Z,7.63
2022-09-07T11:28:17.124Z,8.52
2022-09-07T11:30:46.275Z,2.72
2022-09-07T11:33:17.240Z,7.22
2022-09-07T11:35:47.833Z,3.80
2022-09-07T11:38:22.024Z,3.92
2022-09-07T11:40:55.774Z,8.68
2022-09-07T11:43:24.172Z,8.40
2022-09-07T11:45:53.079Z,5.10
2022-09-07T11:48:22.710Z,5.03
2022-09-07T11:50:52.153Z,3.80
2022-09-07T11:53:21.854Z,4.50
2022-09-07T11:55:50.264Z,4.20
2022-09-07T11:58:27.365Z,8.20
2022-09-07T12:00:58.937Z,10.33
2022-09-07T12:03:32.102Z,5.30
2022-09-07T12:06:26.538Z,8.93
2022-09-07T12:09:09.522Z,6.10
2022-09-07T12:11:55.177Z,6.57
2022-09-07T12:14:31.093Z,5.70
2022-09-07T12:17:07.339Z,3.30
2022-09-07T12:19:35.886Z,3.40
2022-09-07T12:22:03.021Z,6.63
2022-09-07T12:24:35.867Z,5.50
2022-09-07T12:27:03.450Z,4.07
2022-09-07T12:29:30.780Z,4.73
2022-09-07T12:32:07.379Z,9.00
2022-09-07T12:34:59.738Z,4.70
2022-09-07T12:37:41.531Z,4.60
2022-09-07T12:40:27.013Z,11.17
2022-09-07T12:43:27.655Z,5.60
2022-09-07T12:45:55.046Z,5.33
2022-09-07T12:48:30.043Z,3.47
2022-09-07T12:50:58.494Z,2.20
2022-09-07T12:53:31.264Z,2.60
2022-09-07T12:56:17.616Z,4.70
2022-09-07T12:58:53.150Z,4.23
2022-09-07T13:01:25.893Z,3.80
2022-09-07T13:04:17.994Z,4.53
2022-09-07T13:07:02.063Z,5.43
2022-09-07T13:09:35.334Z,6.67
2022-09-07T13:12:03.876Z,7.37
2022-09-07T13:14:34.491Z,3.23
2022-09-07T13:17:20.401Z,6.10
2022-09-07T13:20:07.560Z,8.80
2022-09-07T13:22:53.540Z,6.50
2022-09-07T13:25:35.568Z,2.30
2022-09-07T13:28:05.993Z,5.47
2022-09-07T13:30:45.298Z,2.40
2022-09-07T13:33:27.540Z,2.47
2022-09-07T13:35:55.408Z,3.47
2022-09-07T13:38:23.143Z,4.80
2022-09-07T13:40:51.880Z,4.40
2022-09-07T13:43:22.128Z,2.67
2022-09-07T13:45:58.521Z,3.53
2022-09-07T13:48:27.755Z,4.70
2022-09-07T13:50:59.629Z,2.40
2022-09-07T13:53:49.607Z,3.87
2022-09-07T13:56:19.469Z,3.37
2022-09-07T13:58:48.973Z,5.37
2022-09-07T14:01:17.954Z,5.70
2022-09-07T14:03:47.079Z,3.37
2022-09-07T14:06:15.411Z,2.63
2022-09-07T14:08:47.058Z,3.83
2022-09-07T14:11:20.764Z,4.03
2022-09-07T14:14:06.234Z,6.17
2022-09-07T14:16:33.869Z,4.10
2022-09-07T14:19:01.129Z,3.50
2022-09-07T14:21:28.314Z,9.43
2022-09-07T14:23:55.396Z,8.80
2022-09-07T14:26:23.476Z,2.70
2022-09-07T14:28:52.520Z,2.87
2022-09-07T14:31:20.396Z,3.03
2022-09-07T14:33:50.524Z,2.13
2022-09-07T14:36:41.837Z,3.60
2022-09-07T14:39:06.649Z,8.70
2022-09-07T14:41:34.594Z,4.80
2022-09-07T14:44:03.201Z,3.93
2022-09-07T14:46:31.794Z,5.87
2022-09-07T14:49:02.022Z,3.00
2022-09-07T14:51:35.692Z,3.57
2022-09-07T14:54:05.103Z,1.93
2022-09-07T14:56:34.301Z,4.73
2022-09-07T14:59:02.717Z,1.97
2022-09-07T15:01:37.797Z,2.90
2022-09-07T15:04:16.503Z,2.30
2022-09-07T15:09:35.436Z,4.40
2022-09-07T15:12:03.344Z,3.77
2022-09-07T15:14:31.929Z,7.77
2022-09-07T15:19:46.637Z,5.97
2022-09-07T15:22:13.725Z,2.83
2022-09-07T15:24:40.854Z,9.20
2022-09-07T15:27:18.805Z,3.87
2022-09-07T15:29:47.248Z,5.47
2022-09-07T15:32:16.674Z,6.53
2022-09-07T15:34:45.048Z,6.93
2022-09-07T15:39:59.487Z,4.43
2022-09-07T15:45:15.167Z,2.93
2022-09-07T15:47:43.529Z,6.90
2022-09-07T15:50:14.468Z,3.93
2022-09-07T15:52:41.565Z,3.37
2022-09-07T15:55:08.836Z,4.43
2022-09-07T15:57:59.249Z,1.83
2022-09-07T16:00:24.393Z,3.90
2022-09-07T16:03:08.104Z,4.97
2022-09-07T16:05:35.883Z,3.23
2022-09-07T16:10:54.421Z,4.20
2022-09-07T16:13:22.646Z,4.20
2022-09-07T16:15:51.105Z,4.73
2022-09-07T16:18:18.644Z,5.10
2022-09-07T16:20:46.160Z,3.90
2022-09-07T16:23:15.010Z,4.53
2022-09-07T16:25:42.915Z,3.90
2022-09-07T16:28:10.149Z,3.00
2022-09-07T16:30:39.490Z,7.00
2022-09-07T16:33:08.084Z,3.57
2022-09-07T16:35:35.339Z,4.63
2022-09-07T16:40:50.125Z,3.13
2022-09-07T16:43:17.275Z,3.77
2022-09-07T16:48:33.251Z,4.10
2022-09-07T16:51:02.317Z,4.97
2022-09-07T16:53:30.290Z,2.73
2022-09-07T16:56:00.654Z,3.70
2022-09-07T16:58:37.303Z,4.30
2022-09-07T17:01:04.998Z,4.30
2022-09-07T17:03:33.611Z,4.20
2022-09-07T17:06:00.858Z,7.20
2022-09-07T17:08:27.974Z,3.07
2022-09-07T17:10:58.785Z,4.50
2022-09-07T17:13:25.865Z,5.93
2022-09-07T17:15:53.044Z,3.47
2022-09-07T17:19:29.007Z,1.93
2022-09-07T17:21:09.815Z,9.63
2022-09-07T17:23:45.614Z,5.07
2022-09-07T17:26:15.641Z,4.03
2022-09-07T17:28:44.069Z,4.27
2022-09-07T17:32:23.717Z,5.07
2022-09-07T17:33:59.472Z,2.07
2022-09-07T17:36:28.706Z,3.53
2022-09-07T17:41:45.502Z,3.47
2022-09-07T17:44:12.685Z,2.97
2022-09-07T17:46:39.999Z,5.40
2022-09-07T17:49:07.189Z,4.13
2022-09-07T17:51:36.212Z,3.87
2022-09-07T17:54:09.555Z,3.13
2022-09-07T17:56:37.703Z,3.20
2022-09-07T18:01:51.983Z,3.53
2022-09-07T18:04:19.177Z,5.00
2022-09-07T18:06:47.659Z,3.60
2022-09-07T18:09:14.834Z,2.10
2022-09-07T18:11:46.747Z,5.70
2022-09-07T18:14:15.316Z,3.80
2022-09-07T18:16:43.614Z,4.93
2022-09-07T18:19:11.285Z,6.30
2022-09-07T18:21:39.312Z,1.43
2022-09-07T18:24:13.620Z,4.50
2022-09-07T18:26:41.252Z,4.50
2022-09-07T18:29:25.822Z,6.90
2022-09-07T18:31:55.212Z,3.57
2022-09-07T18:34:22.676Z,5.37
2022-09-07T18:36:49.887Z,2.47
2022-09-07T18:39:18.336Z,5.50
2022-09-07T18:41:45.478Z,3.23
2022-09-07T18:46:59.647Z,4.10
2022-09-07T18:49:26.732Z,3.90
2022-09-07T18:54:42.213Z,4.20
2022-09-07T18:57:09.316Z,2.90
2022-09-07T18:59:36.408Z,4.13
2022-09-07T19:02:05.747Z,9.23
2022-09-07T19:07:20.471Z,3.57
2022-09-07T19:09:49.109Z,7.57
2022-09-07T19:12:16.301Z,5.90
2022-09-07T19:14:43.382Z,3.70
2022-09-07T19:17:10.639Z,10.00
2022-09-07T19:19:37.827Z,7.83
2022-09-07T19:22:04.985Z,3.87
2022-09-07T19:24:32.305Z,2.93
2022-09-07T19:27:01.313Z,8.00
2022-09-07T19:29:28.929Z,8.63
2022-09-07T19:31:56.193Z,13.13
2022-09-07T19:34:23.319Z,4.77
2022-09-07T19:36:50.413Z,3.60
2022-09-07T19:39:17.502Z,4.97
2022-09-07T19:41:44.600Z,5.90
2022-09-07T19:44:13.066Z,8.03
2022-09-07T19:46:40.237Z,12.77
2022-09-07T19:49:07.370Z,3.33
2022-09-07T19:51:36.828Z,4.20
2022-09-07T19:54:04.107Z,7.73
2022-09-07T19:56:31.179Z,3.00
2022-09-07T19:58:58.308Z,7.30
2022-09-07T20:01:26.730Z,4.87
2022-09-07T20:03:56.306Z,6.37
2022-09-07T20:06:23.658Z,3.43
2022-09-07T20:08:50.773Z,5.10
2022-09-07T20:11:18.501Z,7.00
2022-09-07T20:13:45.795Z,8.00
2022-09-07T20:16:14.353Z,5.97
2022-09-07T20:18:43.208Z,5.77
2022-09-07T20:21:11.284Z,9.33
2022-09-07T20:23:38.658Z,7.77
2022-09-07T20:26:06.754Z,11.57
2022-09-07T20:28:34.253Z,6.30
2022-09-07T20:31:04.003Z,3.23
2022-09-07T20:33:34.837Z,6.27
2022-09-07T20:36:06.776Z,7.17
2022-09-07T20:38:39.108Z,5.13
2022-09-07T20:41:06.375Z,4.40
2022-09-07T20:43:33.538Z,8.70
2022-09-07T20:46:00.923Z,7.63
2022-09-07T20:48:28.228Z,6.33
2022-09-07T20:50:55.847Z,3.80
2022-09-07T20:53:24.327Z,6.07
2022-09-07T20:55:58.076Z,5.67
2022-09-07T20:58:25.163Z,5.37
2022-09-07T21:00:52.362Z,4.67
2022-09-07T21:03:19.698Z,5.27
2022-09-07T21:05:46.795Z,13.10
2022-09-07T21:08:14.169Z,2.93
2022-09-07T21:10:43.228Z,5.40
2022-09-07T21:13:10.373Z,8.47
2022-09-07T21:15:37.927Z,10.07
2022-09-07T21:18:05.194Z,6.40
2022-09-07T21:20:32.518Z,8.70
2022-09-07T21:22:59.611Z,7.20
2022-09-07T21:25:26.727Z,4.50
2022-09-07T21:27:55.161Z,7.07
2022-09-07T21:30:22.286Z,7.50
2022-09-07T21:32:50.408Z,8.00
2022-09-07T21:35:17.690Z,5.13
2022-09-07T21:37:44.794Z,5.67
2022-09-07T21:40:12.137Z,8.60
2022-09-07T21:42:39.251Z,7.23
2022-09-07T21:45:08.113Z,7.10
2022-09-07T21:47:35.218Z,7.00
2022-09-07T21:50:02.403Z,5.00
2022-09-07T21:52:29.473Z,8.27
2022-09-07T21:54:56.566Z,4.87
2022-09-07T21:57:23.663Z,8.03
2022-09-07T21:59:50.813Z,10.10
2022-09-07T22:02:19.294Z,10.53
2022-09-07T22:04:46.405Z,7.23
2022-09-07T22:07:13.502Z,6.13
2022-09-07T22:09:40.627Z,7.50
2022-09-07T22:12:07.988Z,8.43
2022-09-07T22:14:35.118Z,8.23
2022-09-07T22:17:02.235Z,8.03
2022-09-07T22:19:30.643Z,9.50
2022-09-07T22:21:57.743Z,6.10
2022-09-07T22:24:24.810Z,7.53
2022-09-07T22:26:52.837Z,9.33
2022-09-07T22:29:19.930Z,5.67
2022-09-07T22:31:47.067Z,5.57
2022-09-07T22:34:14.288Z,7.87
2022-09-07T22:36:43.390Z,5.87
2022-09-07T22:39:11.972Z,8.83
2022-09-07T22:41:39.570Z,9.97
2022-09-07T22:44:07.212Z,6.80
2022-09-07T22:46:35.978Z,9.47
2022-09-07T22:49:03.228Z,5.10
2022-09-07T22:51:30.329Z,4.80
2022-09-07T22:53:58.800Z,3.87
2022-09-07T22:56:26.957Z,5.23
2022-09-07T22:58:54.904Z,4.60
2022-09-07T23:01:22.015Z,8.03
2022-09-07T23:03:49.249Z,4.90
2022-09-07T23:06:20.469Z,4.57
2022-09-07T23:08:47.600Z,5.17
2022-09-07T23:11:16.205Z,4.87
2022-09-07T23:13:43.314Z,4.93
2022-09-07T23:16:10.523Z,3.30
2022-09-07T23:18:38.907Z,3.57
2022-09-07T23:21:06.118Z,4.50
2022-09-07T23:23:33.330Z,6.20
2022-09-07T23:26:01.501Z,5.63
2022-09-07T23:28:30.201Z,7.77
2022-09-07T23:30:57.322Z,5.40
2022-09-07T23:33:24.696Z,6.23
2022-09-07T23:35:55.903Z,5.33
2022-09-07T23:38:23.009Z,5.47
2022-09-07T23:40:50.124Z,4.97
2022-09-07T23:43:17.214Z,4.93
2022-09-07T23:45:45.689Z,4.90
2022-09-07T23:48:12.765Z,4.03
2022-09-07T23:50:39.918Z,5.40
2022-09-07T23:53:07.004Z,5.40
2022-09-07T23:55:34.113Z,4.40
2022-09-07T23:58:01.196Z,3.93
